»·PEaware :: AAR214 KLAX-KSFO

AAR214 :: KLAX-KSFO

FLIGHT INFORMATION

Flight Status: Arrived
Operator:
Asiana Airlines
More flights by this operator :: More flights under this callsign
Pilot: Zachary C. (8151)
Aircraft: BOEING 777-200
(B772)
More flights by this aircraft type
Origin: KLAX Los Angeles Intl
United States
Destination: KSFO San Francisco Intl
United States
More flights between these airports :: More routes between these airports
Route: +VTU6 RZS J501 PEGRS STOKD SERFR SERFR2
File this flight plan on PilotEdge
Remarks:
Altitude:
(Current/Filed)
34,000ft
Speed:
(Current/Filed)
450kts
Departed: 28-Feb-16 11:17 AM
Arrived: 28-Feb-16 12:12 PM
Distance/Time
Traveled:
293nm/0:54
Distance/Time
To Go:
Arrived

Flight Plot

Page will automatically refresh every two minutes.


Map Options




Map Legend


Flown Route
Filed Route
Departure Airport
Arrival Airport
Navaid (VOR, NDB)
Fix

Horizontal Profiles

Position Reports

Time Latitude Longitude Heading Altitude Ground
Speed
28-Feb-16 10:42 33.941923 -118.405274 104 143ft 0kts
28-Feb-16 10:43 33.941923 -118.405274 104 143ft 0kts
28-Feb-16 10:44 33.941923 -118.405274 104 143ft 0kts
28-Feb-16 10:45 33.941923 -118.405274 104 143ft 0kts
28-Feb-16 10:46 33.941923 -118.405274 104 143ft 0kts
28-Feb-16 10:47 33.941923 -118.405274 104 143ft 0kts
28-Feb-16 10:48 33.941923 -118.405274 104 143ft 0kts
28-Feb-16 10:49 33.941923 -118.405274 104 143ft 0kts
28-Feb-16 10:50 33.941923 -118.405274 104 142ft 0kts
28-Feb-16 10:51 33.941923 -118.405274 104 142ft 0kts
28-Feb-16 10:52 33.941923 -118.405274 104 142ft 0kts
28-Feb-16 10:53 33.941923 -118.405274 104 142ft 0kts
28-Feb-16 10:54 33.941923 -118.405274 104 142ft 0kts
28-Feb-16 10:55 33.941923 -118.405274 104 142ft 0kts
28-Feb-16 10:56 33.942026 -118.405814 160 142ft 2kts
28-Feb-16 10:57 33.941757 -118.405739 170 142ft 0kts
28-Feb-16 10:58 33.941757 -118.405739 170 142ft 0kts
28-Feb-16 10:59 33.941757 -118.405739 170 142ft 0kts
28-Feb-16 11:00 33.941750 -118.405738 170 142ft 1kts
28-Feb-16 11:01 33.939774 -118.405398 174 142ft 10kts
28-Feb-16 11:02 33.938445 -118.403189 83 142ft 12kts
28-Feb-16 11:03 33.938852 -118.399254 83 142ft 12kts
28-Feb-16 11:04 33.939294 -118.394928 82 142ft 17kts
28-Feb-16 11:05 33.940256 -118.385533 82 142ft 18kts
28-Feb-16 11:06 33.940702 -118.381021 90 142ft 0kts
28-Feb-16 11:07 33.940702 -118.381021 90 142ft 0kts
28-Feb-16 11:08 33.940524 -118.380330 130 142ft 6kts
28-Feb-16 11:09 33.939791 -118.380589 262 142ft 0kts
28-Feb-16 11:10 33.937211 -118.405517 262 422ft 187kts
28-Feb-16 11:11 33.930153 -118.478519 263 4591ft 235kts
28-Feb-16 11:12 33.918072 -118.573603 262 8738ft 283kts
28-Feb-16 11:13 33.905062 -118.667848 262 12465ft 293kts
28-Feb-16 11:14 33.890937 -118.765927 262 13024ft 316kts
28-Feb-16 11:15 33.876764 -118.868441 263 12998ft 314kts
28-Feb-16 11:16 33.862493 -118.973548 263 15672ft 316kts
28-Feb-16 11:17 33.849340 -119.078743 264 18926ft 325kts
28-Feb-16 11:18 33.889284 -119.172867 326 21407ft 359kts
28-Feb-16 11:19 33.970467 -119.203429 327 23339ft 373kts
28-Feb-16 11:20 34.051686 -119.278880 315 25836ft 379kts
28-Feb-16 11:21 34.130558 -119.362555 315 28195ft 386kts
28-Feb-16 11:22 34.211147 -119.448989 315 30293ft 393kts
28-Feb-16 11:23 34.307490 -119.552653 315 32399ft 406kts
28-Feb-16 11:24 34.377029 -119.627705 315 33668ft 415kts
28-Feb-16 11:25 34.464924 -119.722844 315 34098ft 445kts
28-Feb-16 11:26 34.558781 -119.824831 315 34089ft 469kts
28-Feb-16 11:27 34.652730 -119.927373 315 34162ft 467kts
28-Feb-16 11:28 34.747989 -120.031690 315 34160ft 466kts
28-Feb-16 11:29 34.841047 -120.133603 314 34167ft 466kts
28-Feb-16 11:30 34.935954 -120.237725 314 34171ft 466kts
28-Feb-16 11:31 35.030772 -120.342534 314 34178ft 467kts
28-Feb-16 11:32 35.125432 -120.447551 314 34172ft 467kts
28-Feb-16 11:33 35.219125 -120.551832 314 34183ft 467kts
28-Feb-16 11:34 35.313142 -120.656673 315 34183ft 468kts
28-Feb-16 11:35 35.415067 -120.753441 318 34182ft 470kts
28-Feb-16 11:36 35.516988 -120.849469 318 34260ft 471kts
28-Feb-16 11:37 35.616819 -120.942242 318 34259ft 470kts
28-Feb-16 11:38 35.719086 -121.037539 318 34257ft 471kts
28-Feb-16 11:39 35.821264 -121.132683 318 34141ft 460kts
28-Feb-16 11:40 35.914845 -121.220041 317 33532ft 418kts
28-Feb-16 11:41 36.007460 -121.307163 317 31298ft 426kts
28-Feb-16 11:42 36.103108 -121.391735 322 28319ft 436kts
28-Feb-16 11:43 36.204141 -121.470556 322 26437ft 427kts
28-Feb-16 11:44 36.299455 -121.545073 321 24750ft 392kts
28-Feb-16 11:45 36.387777 -121.614606 322 22461ft 390kts
28-Feb-16 11:46 36.475418 -121.683649 323 20242ft 391kts
28-Feb-16 11:47 36.555692 -121.747004 323 19135ft 369kts
28-Feb-16 11:48 36.635195 -121.810011 323 17630ft 359kts
28-Feb-16 11:49 36.718299 -121.876015 324 16011ft 350kts
28-Feb-16 11:50 36.804936 -121.912040 344 14295ft 310kts
28-Feb-16 11:51 36.897207 -121.937918 344 12775ft 343kts
28-Feb-16 11:52 36.988103 -121.967416 340 11169ft 334kts
28-Feb-16 11:53 37.075687 -122.001642 341 9496ft 318kts
28-Feb-16 11:54 37.150242 -122.030749 340 7780ft 256kts
28-Feb-16 11:55 37.217943 -122.057348 340 6273ft 268kts
28-Feb-16 11:56 37.285886 -122.083952 339 5978ft 249kts
28-Feb-16 11:57 37.352284 -122.109901 339 5578ft 250kts
28-Feb-16 11:58 37.418319 -122.135681 339 4467ft 247kts
28-Feb-16 11:59 37.480593 -122.157512 345 3975ft 219kts
28-Feb-16 12:00 37.535390 -122.179940 307 3098ft 196kts
28-Feb-16 12:01 37.561037 -122.238325 299 2141ft 191kts
28-Feb-16 12:02 37.584126 -122.292857 299 1245ft 159kts
28-Feb-16 12:03 37.603295 -122.338373 298 412ft 143kts
28-Feb-16 12:04 37.620220 -122.378546 297 30ft 67kts
28-Feb-16 12:05 37.621374 -122.383181 189 30ft 0kts
28-Feb-16 12:06 37.621102 -122.383255 195 30ft 0kts
28-Feb-16 12:07 37.621102 -122.383255 195 30ft 0kts
28-Feb-16 12:08 37.621102 -122.383255 195 30ft 0kts
28-Feb-16 12:09 37.621102 -122.383255 195 30ft 0kts
28-Feb-16 12:10 37.621102 -122.383255 195 30ft 0kts
28-Feb-16 12:11 37.620513 -122.384003 292 30ft 8kts
28-Feb-16 12:12 37.618943 -122.385300 152 30ft 4kts
28-Feb-16 12:13 37.618873 -122.385254 152 30ft 0kts
28-Feb-16 12:14 37.618873 -122.385254 152 30ft 0kts
28-Feb-16 12:15 37.618873 -122.385254 152 30ft 0kts
28-Feb-16 12:16 37.618873 -122.385254 152 30ft 0kts
28-Feb-16 12:17 37.618873 -122.385254 152 30ft 0kts
28-Feb-16 12:18 37.618873 -122.385254 152 30ft 0kts

Navigation Log

Ident Type
1. KLAX Airport
2. VTU Navaid
3. RZS Navaid
4. PEGRS Fix
5. KSFO Airport